sensor_id;sensor_type;location;lat;lon;timestamp;temperature;humidity
18884;DHT22;9574;47.282;9.640;2024-02-26T00:01:12;11.30;93.60
18884;DHT22;9574;47.282;9.640;2024-02-26T00:03:39;11.40;93.60
18884;DHT22;9574;47.282;9.640;2024-02-26T00:06:07;11.40;93.80
18884;DHT22;9574;47.282;9.640;2024-02-26T00:08:34;11.40;93.80
18884;DHT22;9574;47.282;9.640;2024-02-26T00:11:01;11.40;93.90
18884;DHT22;9574;47.282;9.640;2024-02-26T00:13:28;11.50;93.60
18884;DHT22;9574;47.282;9.640;2024-02-26T00:15:55;11.40;93.90
18884;DHT22;9574;47.282;9.640;2024-02-26T00:18:24;11.50;94.00
18884;DHT22;9574;47.282;9.640;2024-02-26T00:20:51;11.50;94.10
18884;DHT22;9574;47.282;9.640;2024-02-26T00:23:17;11.40;94.30
18884;DHT22;9574;47.282;9.640;2024-02-26T00:25:44;11.30;94.50
18884;DHT22;9574;47.282;9.640;2024-02-26T00:28:11;11.30;93.90
18884;DHT22;9574;47.282;9.640;2024-02-26T00:30:39;11.40;94.10
18884;DHT22;9574;47.282;9.640;2024-02-26T00:33:06;11.50;94.20
18884;DHT22;9574;47.282;9.640;2024-02-26T00:35:34;11.50;93.40
18884;DHT22;9574;47.282;9.640;2024-02-26T00:38:01;11.40;93.60
18884;DHT22;9574;47.282;9.640;2024-02-26T00:40:28;11.50;93.60
18884;DHT22;9574;47.282;9.640;2024-02-26T00:42:55;11.50;93.40
18884;DHT22;9574;47.282;9.640;2024-02-26T00:45:22;11.60;93.20
18884;DHT22;9574;47.282;9.640;2024-02-26T00:47:49;11.70;93.20
18884;DHT22;9574;47.282;9.640;2024-02-26T00:50:16;11.70;93.50
18884;DHT22;9574;47.282;9.640;2024-02-26T00:52:45;11.70;93.70
18884;DHT22;9574;47.282;9.640;2024-02-26T00:55:12;11.70;93.90
18884;DHT22;9574;47.282;9.640;2024-02-26T00:57:39;11.60;93.80
18884;DHT22;9574;47.282;9.640;2024-02-26T01:00:07;11.60;93.40
18884;DHT22;9574;47.282;9.640;2024-02-26T01:02:35;11.60;93.60
18884;DHT22;9574;47.282;9.640;2024-02-26T01:05:02;11.60;93.80
18884;DHT22;9574;47.282;9.640;2024-02-26T01:07:29;11.70;93.50
18884;DHT22;9574;47.282;9.640;2024-02-26T01:10:03;11.70;93.80
18884;DHT22;9574;47.282;9.640;2024-02-26T01:12:31;11.70;93.30
18884;DHT22;9574;47.282;9.640;2024-02-26T01:14:58;11.80;93.40
18884;DHT22;9574;47.282;9.640;2024-02-26T01:17:25;11.80;93.00
18884;DHT22;9574;47.282;9.640;2024-02-26T01:19:52;11.90;93.30
18884;DHT22;9574;47.282;9.640;2024-02-26T01:22:19;11.90;93.50
18884;DHT22;9574;47.282;9.640;2024-02-26T01:24:46;11.80;93.50
18884;DHT22;9574;47.282;9.640;2024-02-26T01:27:15;11.80;93.60
18884;DHT22;9574;47.282;9.640;2024-02-26T01:29:42;11.70;93.40
18884;DHT22;9574;47.282;9.640;2024-02-26T01:32:09;11.80;93.20
18884;DHT22;9574;47.282;9.640;2024-02-26T01:34:36;11.70;93.40
18884;DHT22;9574;47.282;9.640;2024-02-26T01:37:03;11.80;93.50
18884;DHT22;9574;47.282;9.640;2024-02-26T01:39:30;11.80;93.60
18884;DHT22;9574;47.282;9.640;2024-02-26T01:41:57;11.80;93.90
18884;DHT22;9574;47.282;9.640;2024-02-26T01:44:26;11.80;93.60
18884;DHT22;9574;47.282;9.640;2024-02-26T01:46:54;11.80;93.80
18884;DHT22;9574;47.282;9.640;2024-02-26T01:49:21;11.80;93.90
18884;DHT22;9574;47.282;9.640;2024-02-26T01:51:48;11.70;93.70
18884;DHT22;9574;47.282;9.640;2024-02-26T01:54:15;11.60;94.10
18884;DHT22;9574;47.282;9.640;2024-02-26T01:56:42;11.70;94.40
18884;DHT22;9574;47.282;9.640;2024-02-26T01:59:09;11.60;94.40
18884;DHT22;9574;47.282;9.640;2024-02-26T02:01:39;11.50;94.70
18884;DHT22;9574;47.282;9.640;2024-02-26T02:04:11;11.50;94.70
18884;DHT22;9574;47.282;9.640;2024-02-26T02:06:38;11.60;94.40
18884;DHT22;9574;47.282;9.640;2024-02-26T02:09:05;11.60;94.20
18884;DHT22;9574;47.282;9.640;2024-02-26T02:11:33;11.70;94.60
18884;DHT22;9574;47.282;9.640;2024-02-26T02:14:00;11.70;94.40
18884;DHT22;9574;47.282;9.640;2024-02-26T02:16:27;11.60;94.80
18884;DHT22;9574;47.282;9.640;2024-02-26T02:18:55;11.60;94.70
18884;DHT22;9574;47.282;9.640;2024-02-26T02:21:23;11.60;95.30
18884;DHT22;9574;47.282;9.640;2024-02-26T02:23:50;11.60;95.60
18884;DHT22;9574;47.282;9.640;2024-02-26T02:26:17;11.50;96.00
18884;DHT22;9574;47.282;9.640;2024-02-26T02:28:46;11.40;96.60
18884;DHT22;9574;47.282;9.640;2024-02-26T02:31:13;11.30;96.60
18884;DHT22;9574;47.282;9.640;2024-02-26T02:33:41;11.30;97.00
18884;DHT22;9574;47.282;9.640;2024-02-26T02:36:08;11.30;96.90
18884;DHT22;9574;47.282;9.640;2024-02-26T02:38:38;11.20;96.90
18884;DHT22;9574;47.282;9.640;2024-02-26T02:41:15;11.20;97.40
18884;DHT22;9574;47.282;9.640;2024-02-26T02:43:41;11.10;97.50
18884;DHT22;9574;47.282;9.640;2024-02-26T02:46:08;11.10;97.50
18884;DHT22;9574;47.282;9.640;2024-02-26T02:48:37;11.20;97.70
18884;DHT22;9574;47.282;9.640;2024-02-26T02:51:04;11.10;97.40
18884;DHT22;9574;47.282;9.640;2024-02-26T02:53:31;11.10;97.50
18884;DHT22;9574;47.282;9.640;2024-02-26T02:55:59;11.20;97.80
18884;DHT22;9574;47.282;9.640;2024-02-26T02:58:26;11.20;97.90
18884;DHT22;9574;47.282;9.640;2024-02-26T03:00:53;11.20;97.40
18884;DHT22;9574;47.282;9.640;2024-02-26T03:03:21;11.20;97.20
18884;DHT22;9574;47.282;9.640;2024-02-26T03:05:49;11.10;98.20
18884;DHT22;9574;47.282;9.640;2024-02-26T03:08:16;11.10;98.50
18884;DHT22;9574;47.282;9.640;2024-02-26T03:10:44;11.10;97.80
18884;DHT22;9574;47.282;9.640;2024-02-26T03:13:13;11.10;98.40
18884;DHT22;9574;47.282;9.640;2024-02-26T03:15:40;11.30;97.70
18884;DHT22;9574;47.282;9.640;2024-02-26T03:18:07;11.40;97.40
18884;DHT22;9574;47.282;9.640;2024-02-26T03:20:34;11.40;97.40
18884;DHT22;9574;47.282;9.640;2024-02-26T03:23:02;11.30;97.20
18884;DHT22;9574;47.282;9.640;2024-02-26T03:25:29;11.30;98.10
18884;DHT22;9574;47.282;9.640;2024-02-26T03:27:56;11.30;97.70
18884;DHT22;9574;47.282;9.640;2024-02-26T03:30:24;11.20;97.90
18884;DHT22;9574;47.282;9.640;2024-02-26T03:32:51;11.20;98.00
18884;DHT22;9574;47.282;9.640;2024-02-26T03:35:18;11.20;98.20
18884;DHT22;9574;47.282;9.640;2024-02-26T03:37:46;11.20;97.90
18884;DHT22;9574;47.282;9.640;2024-02-26T03:40:13;11.20;97.90
18884;DHT22;9574;47.282;9.640;2024-02-26T03:42:40;11.20;97.70
18884;DHT22;9574;47.282;9.640;2024-02-26T03:45:08;11.20;97.70
18884;DHT22;9574;47.282;9.640;2024-02-26T03:47:38;11.20;97.30
18884;DHT22;9574;47.282;9.640;2024-02-26T03:50:06;11.20;97.20
18884;DHT22;9574;47.282;9.640;2024-02-26T03:52:33;11.20;98.00
18884;DHT22;9574;47.282;9.640;2024-02-26T03:55:00;11.20;98.10
18884;DHT22;9574;47.282;9.640;2024-02-26T03:57:27;11.10;98.20
18884;DHT22;9574;47.282;9.640;2024-02-26T03:59:54;11.10;98.20
18884;DHT22;9574;47.282;9.640;2024-02-26T04:02:21;11.10;98.40
18884;DHT22;9574;47.282;9.640;2024-02-26T04:04:50;11.10;98.50
18884;DHT22;9574;47.282;9.640;2024-02-26T04:07:17;11.20;98.30
18884;DHT22;9574;47.282;9.640;2024-02-26T04:09:44;11.20;98.50
18884;DHT22;9574;47.282;9.640;2024-02-26T04:12:11;11.20;98.60
18884;DHT22;9574;47.282;9.640;2024-02-26T04:14:39;11.10;98.00
18884;DHT22;9574;47.282;9.640;2024-02-26T04:17:06;11.10;98.30
18884;DHT22;9574;47.282;9.640;2024-02-26T04:19:33;11.10;98.60
18884;DHT22;9574;47.282;9.640;2024-02-26T04:22:02;11.10;99.10
18884;DHT22;9574;47.282;9.640;2024-02-26T04:24:28;11.10;98.90
18884;DHT22;9574;47.282;9.640;2024-02-26T04:26:55;11.00;99.00
18884;DHT22;9574;47.282;9.640;2024-02-26T04:29:23;10.90;99.10
18884;DHT22;9574;47.282;9.640;2024-02-26T04:31:50;10.90;99.50
18884;DHT22;9574;47.282;9.640;2024-02-26T04:34:16;10.90;99.50
18884;DHT22;9574;47.282;9.640;2024-02-26T04:36:43;10.80;99.40
18884;DHT22;9574;47.282;9.640;2024-02-26T04:39:12;10.80;99.50
18884;DHT22;9574;47.282;9.640;2024-02-26T04:41:39;10.80;99.70
18884;DHT22;9574;47.282;9.640;2024-02-26T04:44:06;10.80;99.80
18884;DHT22;9574;47.282;9.640;2024-02-26T04:46:33;10.80;99.70
18884;DHT22;9574;47.282;9.640;2024-02-26T04:49:00;10.80;99.80
18884;DHT22;9574;47.282;9.640;2024-02-26T04:51:27;10.80;99.90
18884;DHT22;9574;47.282;9.640;2024-02-26T04:53:54;10.80;99.70
18884;DHT22;9574;47.282;9.640;2024-02-26T04:56:22;10.70;99.90
18884;DHT22;9574;47.282;9.640;2024-02-26T04:58:49;10.70;99.90
18884;DHT22;9574;47.282;9.640;2024-02-26T05:01:16;10.80;99.90
18884;DHT22;9574;47.282;9.640;2024-02-26T05:03:44;10.80;99.90
18884;DHT22;9574;47.282;9.640;2024-02-26T05:06:11;10.80;99.90
18884;DHT22;9574;47.282;9.640;2024-02-26T05:08:38;10.90;99.60
18884;DHT22;9574;47.282;9.640;2024-02-26T05:11:05;10.90;99.40
18884;DHT22;9574;47.282;9.640;2024-02-26T05:13:33;10.80;99.70
18884;DHT22;9574;47.282;9.640;2024-02-26T05:16:00;10.70;99.90
18884;DHT22;9574;47.282;9.640;2024-02-26T05:18:28;10.70;99.50
18884;DHT22;9574;47.282;9.640;2024-02-26T05:20:55;10.50;99.90
18884;DHT22;9574;47.282;9.640;2024-02-26T05:23:22;10.20;99.90
18884;DHT22;9574;47.282;9.640;2024-02-26T05:25:49;10.00;99.90
18884;DHT22;9574;47.282;9.640;2024-02-26T05:28:16;10.00;99.90
18884;DHT22;9574;47.282;9.640;2024-02-26T05:30:47;9.90;99.90
18884;DHT22;9574;47.282;9.640;2024-02-26T05:33:14;9.80;99.90
18884;DHT22;9574;47.282;9.640;2024-02-26T05:35:41;9.80;99.90
18884;DHT22;9574;47.282;9.640;2024-02-26T05:38:08;9.60;99.90
18884;DHT22;9574;47.282;9.640;2024-02-26T05:40:35;9.50;99.90
18884;DHT22;9574;47.282;9.640;2024-02-26T05:43:02;9.40;99.90
18884;DHT22;9574;47.282;9.640;2024-02-26T05:45:29;9.40;99.90
18884;DHT22;9574;47.282;9.640;2024-02-26T05:47:58;9.30;99.90
18884;DHT22;9574;47.282;9.640;2024-02-26T05:50:25;9.30;99.90
18884;DHT22;9574;47.282;9.640;2024-02-26T05:52:52;9.40;99.90
18884;DHT22;9574;47.282;9.640;2024-02-26T05:55:19;9.40;99.90
18884;DHT22;9574;47.282;9.640;2024-02-26T05:57:46;9.50;99.90
18884;DHT22;9574;47.282;9.640;2024-02-26T06:00:15;9.50;99.90
18884;DHT22;9574;47.282;9.640;2024-02-26T06:02:42;9.30;99.90
18884;DHT22;9574;47.282;9.640;2024-02-26T06:05:10;9.20;99.90
18884;DHT22;9574;47.282;9.640;2024-02-26T06:07:37;9.20;99.90
18884;DHT22;9574;47.282;9.640;2024-02-26T06:10:05;9.10;99.90
18884;DHT22;9574;47.282;9.640;2024-02-26T06:12:35;9.20;99.90
18884;DHT22;9574;47.282;9.640;2024-02-26T06:15:02;9.30;99.90
18884;DHT22;9574;47.282;9.640;2024-02-26T06:17:29;9.20;99.90
18884;DHT22;9574;47.282;9.640;2024-02-26T06:19:57;9.10;99.90
18884;DHT22;9574;47.282;9.640;2024-02-26T06:22:26;9.20;99.90
18884;DHT22;9574;47.282;9.640;2024-02-26T06:24:53;9.30;99.90
18884;DHT22;9574;47.282;9.640;2024-02-26T06:27:21;9.10;99.90
18884;DHT22;9574;47.282;9.640;2024-02-26T06:29:49;9.20;99.90
18884;DHT22;9574;47.282;9.640;2024-02-26T06:32:16;9.50;99.90
18884;DHT22;9574;47.282;9.640;2024-02-26T06:34:43;9.40;99.90
18884;DHT22;9574;47.282;9.640;2024-02-26T06:37:12;9.30;99.90
18884;DHT22;9574;47.282;9.640;2024-02-26T06:39:41;9.20;99.90
18884;DHT22;9574;47.282;9.640;2024-02-26T06:42:08;9.50;99.90
18884;DHT22;9574;47.282;9.640;2024-02-26T06:44:35;9.80;99.90
18884;DHT22;9574;47.282;9.640;2024-02-26T06:47:02;9.80;99.90
18884;DHT22;9574;47.282;9.640;2024-02-26T06:49:29;9.70;99.90
18884;DHT22;9574;47.282;9.640;2024-02-26T06:51:56;9.40;99.90
18884;DHT22;9574;47.282;9.640;2024-02-26T06:54:23;9.10;99.90
18884;DHT22;9574;47.282;9.640;2024-02-26T06:56:51;9.00;99.90
18884;DHT22;9574;47.282;9.640;2024-02-26T06:59:17;9.20;99.90
18884;DHT22;9574;47.282;9.640;2024-02-26T07:01:45;9.30;99.90
18884;DHT22;9574;47.282;9.640;2024-02-26T07:04:12;9.40;99.90
18884;DHT22;9574;47.282;9.640;2024-02-26T07:06:39;9.50;99.90
18884;DHT22;9574;47.282;9.640;2024-02-26T07:09:07;9.70;99.90
18884;DHT22;9574;47.282;9.640;2024-02-26T07:11:34;9.60;99.90
18884;DHT22;9574;47.282;9.640;2024-02-26T07:14:02;9.50;99.90
18884;DHT22;9574;47.282;9.640;2024-02-26T07:16:29;9.50;99.90
18884;DHT22;9574;47.282;9.640;2024-02-26T07:18:56;9.40;99.90
18884;DHT22;9574;47.282;9.640;2024-02-26T07:21:23;9.40;99.90
18884;DHT22;9574;47.282;9.640;2024-02-26T07:23:50;9.50;99.90
18884;DHT22;9574;47.282;9.640;2024-02-26T07:26:17;9.40;99.90
18884;DHT22;9574;47.282;9.640;2024-02-26T07:28:45;9.30;99.90
18884;DHT22;9574;47.282;9.640;2024-02-26T07:31:13;9.30;99.90
18884;DHT22;9574;47.282;9.640;2024-02-26T07:33:40;9.30;99.90
18884;DHT22;9574;47.282;9.640;2024-02-26T07:36:07;9.30;99.90
18884;DHT22;9574;47.282;9.640;2024-02-26T07:38:34;9.70;99.90
18884;DHT22;9574;47.282;9.640;2024-02-26T07:41:02;9.80;99.90
18884;DHT22;9574;47.282;9.640;2024-02-26T07:43:29;9.60;99.90
18884;DHT22;9574;47.282;9.640;2024-02-26T07:45:56;9.30;99.90
18884;DHT22;9574;47.282;9.640;2024-02-26T07:48:25;9.20;99.90
18884;DHT22;9574;47.282;9.640;2024-02-26T07:50:52;9.10;99.90
18884;DHT22;9574;47.282;9.640;2024-02-26T07:53:19;9.00;99.90
18884;DHT22;9574;47.282;9.640;2024-02-26T07:55:46;9.00;99.90
18884;DHT22;9574;47.282;9.640;2024-02-26T07:58:13;9.00;99.90
18884;DHT22;9574;47.282;9.640;2024-02-26T08:00:40;9.00;99.90
18884;DHT22;9574;47.282;9.640;2024-02-26T08:03:07;9.10;99.90
18884;DHT22;9574;47.282;9.640;2024-02-26T08:05:35;9.30;99.90
18884;DHT22;9574;47.282;9.640;2024-02-26T08:08:06;9.60;99.90
18884;DHT22;9574;47.282;9.640;2024-02-26T08:10:33;10.00;99.90
18884;DHT22;9574;47.282;9.640;2024-02-26T08:13:00;10.30;99.90
18884;DHT22;9574;47.282;9.640;2024-02-26T08:15:31;10.30;99.90
18884;DHT22;9574;47.282;9.640;2024-02-26T08:17:59;10.30;99.90
18884;DHT22;9574;47.282;9.640;2024-02-26T08:20:28;10.50;99.90
18884;DHT22;9574;47.282;9.640;2024-02-26T08:22:56;10.70;99.90
18884;DHT22;9574;47.282;9.640;2024-02-26T08:25:23;10.90;99.90
18884;DHT22;9574;47.282;9.640;2024-02-26T08:27:50;10.90;99.90
18884;DHT22;9574;47.282;9.640;2024-02-26T08:30:17;11.00;99.90
18884;DHT22;9574;47.282;9.640;2024-02-26T08:32:45;11.10;99.90
18884;DHT22;9574;47.282;9.640;2024-02-26T08:35:12;11.10;99.90
18884;DHT22;9574;47.282;9.640;2024-02-26T08:37:39;11.10;99.90
18884;DHT22;9574;47.282;9.640;2024-02-26T08:40:08;11.00;99.90
18884;DHT22;9574;47.282;9.640;2024-02-26T08:42:35;10.80;99.90
18884;DHT22;9574;47.282;9.640;2024-02-26T08:45:02;10.80;99.90
18884;DHT22;9574;47.282;9.640;2024-02-26T08:47:30;10.70;99.90
18884;DHT22;9574;47.282;9.640;2024-02-26T08:49:57;10.70;99.90
18884;DHT22;9574;47.282;9.640;2024-02-26T08:52:23;10.70;99.90
18884;DHT22;9574;47.282;9.640;2024-02-26T08:54:50;10.80;99.90
18884;DHT22;9574;47.282;9.640;2024-02-26T08:57:18;10.70;99.90
18884;DHT22;9574;47.282;9.640;2024-02-26T08:59:45;10.60;99.90
18884;DHT22;9574;47.282;9.640;2024-02-26T09:02:12;10.60;99.90
18884;DHT22;9574;47.282;9.640;2024-02-26T09:04:39;10.70;99.90
18884;DHT22;9574;47.282;9.640;2024-02-26T09:07:06;11.20;99.90
18884;DHT22;9574;47.282;9.640;2024-02-26T09:09:33;12.00;99.90
18884;DHT22;9574;47.282;9.640;2024-02-26T09:12:00;12.50;99.90
18884;DHT22;9574;47.282;9.640;2024-02-26T09:14:28;13.10;99.90
18884;DHT22;9574;47.282;9.640;2024-02-26T09:16:55;13.90;99.90
18884;DHT22;9574;47.282;9.640;2024-02-26T09:19:23;14.40;99.90
18884;DHT22;9574;47.282;9.640;2024-02-26T09:21:51;14.60;99.90
18884;DHT22;9574;47.282;9.640;2024-02-26T09:24:19;15.00;99.90
18884;DHT22;9574;47.282;9.640;2024-02-26T09:26:46;15.50;99.90
18884;DHT22;9574;47.282;9.640;2024-02-26T09:29:13;15.70;99.90
18884;DHT22;9574;47.282;9.640;2024-02-26T09:31:41;15.80;99.90
18884;DHT22;9574;47.282;9.640;2024-02-26T09:34:09;15.60;99.80
18884;DHT22;9574;47.282;9.640;2024-02-26T09:36:36;15.20;99.90
18884;DHT22;9574;47.282;9.640;2024-02-26T09:39:06;14.90;99.90
18884;DHT22;9574;47.282;9.640;2024-02-26T09:41:37;14.50;99.90
18884;DHT22;9574;47.282;9.640;2024-02-26T09:44:05;14.20;99.90
18884;DHT22;9574;47.282;9.640;2024-02-26T09:46:33;14.00;99.90
18884;DHT22;9574;47.282;9.640;2024-02-26T09:49:02;13.60;99.90
18884;DHT22;9574;47.282;9.640;2024-02-26T09:51:29;13.30;99.90
18884;DHT22;9574;47.282;9.640;2024-02-26T09:53:59;13.20;99.90
18884;DHT22;9574;47.282;9.640;2024-02-26T09:56:27;13.00;99.90
18884;DHT22;9574;47.282;9.640;2024-02-26T09:58:56;12.80;99.90
18884;DHT22;9574;47.282;9.640;2024-02-26T10:01:23;12.70;99.90
18884;DHT22;9574;47.282;9.640;2024-02-26T10:03:54;12.60;99.90
18884;DHT22;9574;47.282;9.640;2024-02-26T10:06:24;12.50;99.90
18884;DHT22;9574;47.282;9.640;2024-02-26T10:08:53;12.50;99.90
18884;DHT22;9574;47.282;9.640;2024-02-26T10:11:21;12.60;99.90
18884;DHT22;9574;47.282;9.640;2024-02-26T10:13:49;12.60;99.90
18884;DHT22;9574;47.282;9.640;2024-02-26T10:16:16;12.60;99.90
18884;DHT22;9574;47.282;9.640;2024-02-26T10:18:46;12.50;99.90
18884;DHT22;9574;47.282;9.640;2024-02-26T10:21:15;12.50;99.90
18884;DHT22;9574;47.282;9.640;2024-02-26T10:23:45;12.50;99.90
18884;DHT22;9574;47.282;9.640;2024-02-26T10:26:13;12.50;99.90
18884;DHT22;9574;47.282;9.640;2024-02-26T10:28:41;12.50;99.90
18884;DHT22;9574;47.282;9.640;2024-02-26T10:31:09;12.50;99.90
18884;DHT22;9574;47.282;9.640;2024-02-26T10:33:37;12.50;99.90
18884;DHT22;9574;47.282;9.640;2024-02-26T10:36:04;12.40;99.90
18884;DHT22;9574;47.282;9.640;2024-02-26T10:38:32;12.40;99.90
18884;DHT22;9574;47.282;9.640;2024-02-26T10:41:01;12.40;99.90
18884;DHT22;9574;47.282;9.640;2024-02-26T10:43:28;12.40;99.90
18884;DHT22;9574;47.282;9.640;2024-02-26T10:45:55;12.50;99.90
18884;DHT22;9574;47.282;9.640;2024-02-26T10:48:23;12.40;99.90
18884;DHT22;9574;47.282;9.640;2024-02-26T10:50:50;12.40;99.90
18884;DHT22;9574;47.282;9.640;2024-02-26T10:53:20;12.40;99.90
18884;DHT22;9574;47.282;9.640;2024-02-26T10:55:52;12.30;99.90
18884;DHT22;9574;47.282;9.640;2024-02-26T10:58:21;12.30;99.90
18884;DHT22;9574;47.282;9.640;2024-02-26T11:00:51;12.40;99.90
18884;DHT22;9574;47.282;9.640;2024-02-26T11:03:20;12.40;99.90
18884;DHT22;9574;47.282;9.640;2024-02-26T11:05:49;12.40;99.90
18884;DHT22;9574;47.282;9.640;2024-02-26T11:08:18;12.40;99.90
18884;DHT22;9574;47.282;9.640;2024-02-26T11:10:47;12.40;99.90
18884;DHT22;9574;47.282;9.640;2024-02-26T11:13:15;12.40;99.90
18884;DHT22;9574;47.282;9.640;2024-02-26T11:15:46;12.40;99.90
18884;DHT22;9574;47.282;9.640;2024-02-26T11:18:15;12.40;99.90
18884;DHT22;9574;47.282;9.640;2024-02-26T11:20:42;12.40;99.90
18884;DHT22;9574;47.282;9.640;2024-02-26T11:23:09;12.30;99.90
18884;DHT22;9574;47.282;9.640;2024-02-26T11:25:36;12.20;99.90
18884;DHT22;9574;47.282;9.640;2024-02-26T11:28:16;12.20;99.90
18884;DHT22;9574;47.282;9.640;2024-02-26T11:30:48;12.10;99.90
18884;DHT22;9574;47.282;9.640;2024-02-26T11:33:15;12.10;99.90
18884;DHT22;9574;47.282;9.640;2024-02-26T11:35:42;12.10;99.90
18884;DHT22;9574;47.282;9.640;2024-02-26T11:38:17;12.10;99.90
18884;DHT22;9574;47.282;9.640;2024-02-26T11:40:44;12.10;99.90
18884;DHT22;9574;47.282;9.640;2024-02-26T11:43:11;12.10;99.90
18884;DHT22;9574;47.282;9.640;2024-02-26T11:45:49;12.10;99.90
18884;DHT22;9574;47.282;9.640;2024-02-26T11:48:21;12.10;99.90
18884;DHT22;9574;47.282;9.640;2024-02-26T11:50:50;12.00;99.90
18884;DHT22;9574;47.282;9.640;2024-02-26T11:53:21;12.00;99.90
18884;DHT22;9574;47.282;9.640;2024-02-26T11:55:48;11.90;99.90
18884;DHT22;9574;47.282;9.640;2024-02-26T11:58:35;11.90;99.90
18884;DHT22;9574;47.282;9.640;2024-02-26T12:01:04;11.90;99.90
18884;DHT22;9574;47.282;9.640;2024-02-26T12:03:31;11.90;99.90
18884;DHT22;9574;47.282;9.640;2024-02-26T12:05:58;11.90;99.90
18884;DHT22;9574;47.282;9.640;2024-02-26T12:08:25;11.90;99.90
18884;DHT22;9574;47.282;9.640;2024-02-26T12:10:54;11.90;99.90
18884;DHT22;9574;47.282;9.640;2024-02-26T12:13:29;11.90;99.90
18884;DHT22;9574;47.282;9.640;2024-02-26T12:15:57;11.90;99.90
18884;DHT22;9574;47.282;9.640;2024-02-26T12:18:26;11.90;99.90
18884;DHT22;9574;47.282;9.640;2024-02-26T12:20:58;12.00;99.90
18884;DHT22;9574;47.282;9.640;2024-02-26T12:23:26;12.00;99.90
18884;DHT22;9574;47.282;9.640;2024-02-26T12:25:54;12.00;99.90
18884;DHT22;9574;47.282;9.640;2024-02-26T12:28:27;11.90;99.90
18884;DHT22;9574;47.282;9.640;2024-02-26T12:30:55;12.00;99.90
18884;DHT22;9574;47.282;9.640;2024-02-26T12:33:26;12.00;99.90
18884;DHT22;9574;47.282;9.640;2024-02-26T12:35:54;12.10;99.90
18884;DHT22;9574;47.282;9.640;2024-02-26T12:38:21;12.10;99.90
18884;DHT22;9574;47.282;9.640;2024-02-26T12:40:48;12.00;99.90
18884;DHT22;9574;47.282;9.640;2024-02-26T12:43:15;12.00;99.90
18884;DHT22;9574;47.282;9.640;2024-02-26T12:45:43;12.00;99.90
18884;DHT22;9574;47.282;9.640;2024-02-26T12:48:12;12.10;99.90
18884;DHT22;9574;47.282;9.640;2024-02-26T12:50:45;12.10;99.90
18884;DHT22;9574;47.282;9.640;2024-02-26T12:53:12;12.10;99.90
18884;DHT22;9574;47.282;9.640;2024-02-26T12:55:39;12.10;99.90
18884;DHT22;9574;47.282;9.640;2024-02-26T12:58:08;12.10;99.90
18884;DHT22;9574;47.282;9.640;2024-02-26T13:00:35;12.20;99.90
18884;DHT22;9574;47.282;9.640;2024-02-26T13:03:03;12.20;99.90
18884;DHT22;9574;47.282;9.640;2024-02-26T13:05:30;12.30;99.90
18884;DHT22;9574;47.282;9.640;2024-02-26T13:07:59;12.40;99.90
18884;DHT22;9574;47.282;9.640;2024-02-26T13:10:26;12.60;99.90
18884;DHT22;9574;47.282;9.640;2024-02-26T13:12:53;12.60;99.90
18884;DHT22;9574;47.282;9.640;2024-02-26T13:15:21;12.70;99.90
18884;DHT22;9574;47.282;9.640;2024-02-26T13:17:49;12.60;99.90
18884;DHT22;9574;47.282;9.640;2024-02-26T13:20:26;12.60;99.90
18884;DHT22;9574;47.282;9.640;2024-02-26T13:23:01;12.50;99.90
18884;DHT22;9574;47.282;9.640;2024-02-26T13:25:28;12.40;99.90
18884;DHT22;9574;47.282;9.640;2024-02-26T13:28:07;12.40;99.90
18884;DHT22;9574;47.282;9.640;2024-02-26T13:30:35;12.40;99.90
18884;DHT22;9574;47.282;9.640;2024-02-26T13:33:07;12.40;99.90
18884;DHT22;9574;47.282;9.640;2024-02-26T13:35:35;12.50;99.90
18884;DHT22;9574;47.282;9.640;2024-02-26T13:38:04;12.50;99.90
18884;DHT22;9574;47.282;9.640;2024-02-26T13:40:31;12.50;99.90
18884;DHT22;9574;47.282;9.640;2024-02-26T13:42:58;12.50;99.90
18884;DHT22;9574;47.282;9.640;2024-02-26T13:45:25;12.70;99.90
18884;DHT22;9574;47.282;9.640;2024-02-26T13:47:52;12.70;99.90
18884;DHT22;9574;47.282;9.640;2024-02-26T13:50:19;12.70;99.90
18884;DHT22;9574;47.282;9.640;2024-02-26T13:52:49;12.60;99.90
18884;DHT22;9574;47.282;9.640;2024-02-26T13:55:20;12.50;99.90
18884;DHT22;9574;47.282;9.640;2024-02-26T13:57:49;12.50;99.90
18884;DHT22;9574;47.282;9.640;2024-02-26T14:00:18;12.40;99.90
18884;DHT22;9574;47.282;9.640;2024-02-26T14:02:45;12.40;99.90
18884;DHT22;9574;47.282;9.640;2024-02-26T14:05:12;12.30;99.90
18884;DHT22;9574;47.282;9.640;2024-02-26T14:07:39;12.30;99.90
18884;DHT22;9574;47.282;9.640;2024-02-26T14:10:07;12.20;99.90
18884;DHT22;9574;47.282;9.640;2024-02-26T14:12:37;12.10;99.90
18884;DHT22;9574;47.282;9.640;2024-02-26T14:15:05;12.00;99.90
18884;DHT22;9574;47.282;9.640;2024-02-26T14:17:32;12.00;99.90
18884;DHT22;9574;47.282;9.640;2024-02-26T14:19:59;11.90;99.90
18884;DHT22;9574;47.282;9.640;2024-02-26T14:22:26;11.90;99.90
18884;DHT22;9574;47.282;9.640;2024-02-26T14:24:53;12.00;99.90
18884;DHT22;9574;47.282;9.640;2024-02-26T14:27:20;12.00;99.90
18884;DHT22;9574;47.282;9.640;2024-02-26T14:29:49;12.00;99.90
18884;DHT22;9574;47.282;9.640;2024-02-26T14:32:16;12.00;99.90
18884;DHT22;9574;47.282;9.640;2024-02-26T14:34:43;12.00;99.90
18884;DHT22;9574;47.282;9.640;2024-02-26T14:37:10;12.00;99.90
18884;DHT22;9574;47.282;9.640;2024-02-26T14:39:38;12.00;99.90
18884;DHT22;9574;47.282;9.640;2024-02-26T14:42:05;12.10;99.90
18884;DHT22;9574;47.282;9.640;2024-02-26T14:44:32;12.10;99.90
18884;DHT22;9574;47.282;9.640;2024-02-26T14:47:00;12.30;99.90
18884;DHT22;9574;47.282;9.640;2024-02-26T14:49:27;12.40;99.90
18884;DHT22;9574;47.282;9.640;2024-02-26T14:51:56;12.40;99.90
18884;DHT22;9574;47.282;9.640;2024-02-26T14:54:23;12.30;99.90
18884;DHT22;9574;47.282;9.640;2024-02-26T14:56:50;12.30;99.90
18884;DHT22;9574;47.282;9.640;2024-02-26T14:59:17;12.20;99.90
18884;DHT22;9574;47.282;9.640;2024-02-26T15:01:44;12.10;99.90
18884;DHT22;9574;47.282;9.640;2024-02-26T15:04:12;12.00;99.90
18884;DHT22;9574;47.282;9.640;2024-02-26T15:06:39;12.00;99.90
18884;DHT22;9574;47.282;9.640;2024-02-26T15:09:06;11.90;99.90
18884;DHT22;9574;47.282;9.640;2024-02-26T15:11:38;11.80;99.90
18884;DHT22;9574;47.282;9.640;2024-02-26T15:14:05;11.80;99.90
18884;DHT22;9574;47.282;9.640;2024-02-26T15:16:32;11.80;99.90
18884;DHT22;9574;47.282;9.640;2024-02-26T15:18:58;11.80;99.90
18884;DHT22;9574;47.282;9.640;2024-02-26T15:21:27;11.70;99.90
18884;DHT22;9574;47.282;9.640;2024-02-26T15:23:54;11.70;99.90
18884;DHT22;9574;47.282;9.640;2024-02-26T15:26:21;11.60;99.90
18884;DHT22;9574;47.282;9.640;2024-02-26T15:28:48;11.60;99.90
18884;DHT22;9574;47.282;9.640;2024-02-26T15:31:16;11.60;99.90
18884;DHT22;9574;47.282;9.640;2024-02-26T15:33:43;11.60;99.90
18884;DHT22;9574;47.282;9.640;2024-02-26T15:36:10;11.60;99.90
18884;DHT22;9574;47.282;9.640;2024-02-26T15:38:38;11.50;99.90
18884;DHT22;9574;47.282;9.640;2024-02-26T15:41:11;11.50;99.90
18884;DHT22;9574;47.282;9.640;2024-02-26T15:43:39;11.50;99.90
18884;DHT22;9574;47.282;9.640;2024-02-26T15:46:06;11.40;99.90
18884;DHT22;9574;47.282;9.640;2024-02-26T15:48:33;11.40;99.90
18884;DHT22;9574;47.282;9.640;2024-02-26T15:51:00;11.40;99.90
18884;DHT22;9574;47.282;9.640;2024-02-26T15:53:27;11.40;99.90